Disney Magic — C6PT7 — position and weather

sailwx.info

Track history (hours):
 
Tides and Currents Weather Stations Pressure Air Temp Water Temp Dewpoint Dewpoint Depression Visibility Wind Speed Wind Dir Waves Ship Positions

Disney Magic

Last reported at 2016-Jul-29 03:33 UTC. Time now 2016-Jul-29 04:00 UTC.
Position N 38°57' W 009°45'.

Type: Passenger vessel. MMSI: 308516000.

Date/timePositionNaut miles runAvg speedWind from/ knotsBaromVisibWave heightAir tempDewpointWater temp
2016-Jul-29 03:33N 38°57' W 009°45'1818.1
2016-Jul-29 02:33N 39°15' W 009°49'1817.5
2016-Jul-29 01:32N 39°33' W 009°51'2217.9
2016-Jul-29 00:17N 39°55' W 009°45'  
2016-Jul-26 13:33N 48°36' W 006°04'1817.9
2016-Jul-26 12:33N 48°52' W 005°52'1816.7
2016-Jul-26 11:28N 49°02' W 005°29'1516.3
2016-Jul-26 10:32N 49°10' W 005°09'1715.6
2016-Jul-26 09:28N 49°18' W 004°47'5116.3
2016-Jul-26 06:20N 49°43' W 003°38'1418.5
2016-Jul-26 05:33N 49°51' W 003°19'1919.1
2016-Jul-26 04:33N 49°57' W 002°51'2418.4
2016-Jul-26 03:15N 50°05' W 002°15'5615.1
2016-Jul-25 23:33N 50°19' W 000°51'1514.8
2016-Jul-25 22:34N 50°23' W 000°29'1616.3
2016-Jul-25 21:33N 50°27' W 000°04'1817.6
2016-Jul-25 20:34N 50°32' E 000°23'2417.4
2016-Jul-25 19:11N 50°46' E 000°53'1116.4
2016-Jul-25 18:32N 50°53' E 001°06'1515.3
2016-Jul-25 17:34N 51°04' E 001°23'4 2.7
2016-Jul-25 16:07N 51°07' E 001°19'0 0.0
2016-Jul-25 15:31N 51°07' E 001°19'0 0.0
2016-Jul-25 14:31N 51°07' E 001°19'0 0.0
2016-Jul-25 13:31N 51°07' E 001°19'0 0.0
2016-Jul-25 12:31N 51°07' E 001°19'0 0.0
2016-Jul-25 11:31N 51°07' E 001°19'0 0.0
2016-Jul-25 10:25N 51°07' E 001°19'0 0.0
2016-Jul-25 09:25N 51°07' E 001°19'0 0.0
2016-Jul-25 08:31N 51°07' E 001°19'0 0.0
2016-Jul-25 07:31N 51°07' E 001°19'0 0.0
2016-Jul-25 06:25N 51°07' E 001°19'0 0.0
2016-Jul-25 05:28N 51°07' E 001°19'0 0.0
2016-Jul-25 04:33N 51°07' E 001°19'4 4.4
2016-Jul-25 03:34N 51°08' E 001°26'1111.2
2016-Jul-25 02:34N 51°15' E 001°40'1313.3
2016-Jul-25 01:33N 51°27' E 001°47'1313.3
2016-Jul-25 00:33N 51°41' E 001°45'1413.7
2016-Jul-24 23:34N 51°54' E 001°45'1313.2
2016-Jul-24 22:34N 52°05' E 001°57'1713.5
2016-Jul-24 21:16N 52°19' E 002°14'1313.6
2016-Jul-24 20:18N 52°32' E 002°12'1513.9
2016-Jul-24 19:13N 52°47' E 002°11'1014.5
2016-Jul-24 18:33N 52°55' E 002°01'1515.2
2016-Jul-24 17:33N 53°02' E 001°39'1514.7
2016-Jul-24 16:34N 53°10' E 001°18'1514.8
2016-Jul-24 15:34N 53°23' E 001°06'1514.8
2016-Jul-24 14:32N 53°36' E 000°55'1515.1
2016-Jul-24 13:33N 53°49' E 000°43'1514.9
2016-Jul-24 12:33N 54°01' E 000°27'1515.2
2016-Jul-24 11:34N 54°13' E 000°12'1414.0
2016-Jul-24 10:34N 54°26' E 000°01'1716.8
2016-Jul-24 09:34N 54°39' W 000°17'1817.6
2016-Jul-24 08:34N 54°56' W 000°25'1818.0
2016-Jul-24 07:33N 55°13' W 000°32'2018.4
2016-Jul-24 06:29N 55°32' W 000°42'11718.6
2016-Jul-24 00:13N 57°26' W 001°29'1417.8
2016-Jul-23 23:26N 57°40' W 001°36'1516.9
2016-Jul-23 22:33N 57°49' W 001°58'44 1.7
2016-Jul-22 20:33N 58°30' W 002°27'1414.2
2016-Jul-22 19:33N 58°43' W 002°18'1414.1
2016-Jul-22 18:33N 58°57' W 002°28'1414.3
2016-Jul-22 17:33N 59°01' W 002°54'2 2.3
2016-Jul-22 16:32N 59°00' W 002°59'0 0.0
2016-Jul-22 15:32N 59°00' W 002°59'0 0.0
2016-Jul-22 14:32N 59°00' W 002°59'0 0.0
2016-Jul-22 13:32N 59°00' W 002°59'0 0.0
2016-Jul-22 12:32N 59°00' W 002°59'0 0.0
2016-Jul-22 11:32N 59°00' W 002°59'0 0.0
2016-Jul-22 10:32N 59°00' W 002°59'0 0.0
2016-Jul-22 09:32N 59°00' W 002°59'0 0.0
2016-Jul-22 08:32N 59°00' W 002°59'0 0.0
2016-Jul-22 07:33N 59°00' W 002°59'14 6.9
2016-Jul-22 05:33N 59°14' W 003°03'1616.2
2016-Jul-22 04:33N 59°20' W 003°32'1716.7
2016-Jul-22 03:33N 59°27' W 004°02'  
Track history (hours):
 
Tides and Currents Weather Stations Pressure Air Temp Water Temp Dewpoint Dewpoint Depression Visibility Wind Speed Wind Dir Waves Ship Positions

Disney Magic

Last reported at 2016-Jul-29 03:33 UTC. Time now 2016-Jul-29 04:00 UTC.
Position N 38°57' W 009°45'.

Type: Passenger vessel. MMSI: 308516000.

Date/timePositionNaut miles runAvg speedWind from/ knotsBaromVisibWave heightAir tempDewpointWater temp
2016-Jul-29 03:33N 38°57' W 009°45'1818.1
2016-Jul-29 02:33N 39°15' W 009°49'1817.5
2016-Jul-29 01:32N 39°33' W 009°51'2217.9
2016-Jul-29 00:17N 39°55' W 009°45'  
2016-Jul-26 13:33N 48°36' W 006°04'1817.9
2016-Jul-26 12:33N 48°52' W 005°52'1816.7
2016-Jul-26 11:28N 49°02' W 005°29'1516.3
2016-Jul-26 10:32N 49°10' W 005°09'1715.6
2016-Jul-26 09:28N 49°18' W 004°47'5116.3
2016-Jul-26 06:20N 49°43' W 003°38'1418.5
2016-Jul-26 05:33N 49°51' W 003°19'1919.1
2016-Jul-26 04:33N 49°57' W 002°51'2418.4
2016-Jul-26 03:15N 50°05' W 002°15'5615.1
2016-Jul-25 23:33N 50°19' W 000°51'1514.8
2016-Jul-25 22:34N 50°23' W 000°29'1616.3
2016-Jul-25 21:33N 50°27' W 000°04'1817.6
2016-Jul-25 20:34N 50°32' E 000°23'2417.4
2016-Jul-25 19:11N 50°46' E 000°53'1116.4
2016-Jul-25 18:32N 50°53' E 001°06'1515.3
2016-Jul-25 17:34N 51°04' E 001°23'4 2.7
2016-Jul-25 16:07N 51°07' E 001°19'0 0.0
2016-Jul-25 15:31N 51°07' E 001°19'0 0.0
2016-Jul-25 14:31N 51°07' E 001°19'0 0.0
2016-Jul-25 13:31N 51°07' E 001°19'0 0.0
2016-Jul-25 12:31N 51°07' E 001°19'0 0.0
2016-Jul-25 11:31N 51°07' E 001°19'0 0.0
2016-Jul-25 10:25N 51°07' E 001°19'0 0.0
2016-Jul-25 09:25N 51°07' E 001°19'0 0.0
2016-Jul-25 08:31N 51°07' E 001°19'0 0.0
2016-Jul-25 07:31N 51°07' E 001°19'0 0.0
2016-Jul-25 06:25N 51°07' E 001°19'0 0.0
2016-Jul-25 05:28N 51°07' E 001°19'0 0.0
2016-Jul-25 04:33N 51°07' E 001°19'4 4.4
2016-Jul-25 03:34N 51°08' E 001°26'1111.2
2016-Jul-25 02:34N 51°15' E 001°40'1313.3
2016-Jul-25 01:33N 51°27' E 001°47'1313.3
2016-Jul-25 00:33N 51°41' E 001°45'1413.7
2016-Jul-24 23:34N 51°54' E 001°45'1313.2
2016-Jul-24 22:34N 52°05' E 001°57'1713.5
2016-Jul-24 21:16N 52°19' E 002°14'1313.6
2016-Jul-24 20:18N 52°32' E 002°12'1513.9
2016-Jul-24 19:13N 52°47' E 002°11'1014.5
2016-Jul-24 18:33N 52°55' E 002°01'1515.2
2016-Jul-24 17:33N 53°02' E 001°39'1514.7
2016-Jul-24 16:34N 53°10' E 001°18'1514.8
2016-Jul-24 15:34N 53°23' E 001°06'1514.8
2016-Jul-24 14:32N 53°36' E 000°55'1515.1
2016-Jul-24 13:33N 53°49' E 000°43'1514.9
2016-Jul-24 12:33N 54°01' E 000°27'1515.2
2016-Jul-24 11:34N 54°13' E 000°12'1414.0
2016-Jul-24 10:34N 54°26' E 000°01'1716.8
2016-Jul-24 09:34N 54°39' W 000°17'1817.6
2016-Jul-24 08:34N 54°56' W 000°25'1818.0
2016-Jul-24 07:33N 55°13' W 000°32'2018.4
2016-Jul-24 06:29N 55°32' W 000°42'11718.6
2016-Jul-24 00:13N 57°26' W 001°29'1417.8
2016-Jul-23 23:26N 57°40' W 001°36'1516.9
2016-Jul-23 22:33N 57°49' W 001°58'44 1.7
2016-Jul-22 20:33N 58°30' W 002°27'1414.2
2016-Jul-22 19:33N 58°43' W 002°18'1414.1
2016-Jul-22 18:33N 58°57' W 002°28'1414.3
2016-Jul-22 17:33N 59°01' W 002°54'2 2.3
2016-Jul-22 16:32N 59°00' W 002°59'0 0.0
2016-Jul-22 15:32N 59°00' W 002°59'0 0.0
2016-Jul-22 14:32N 59°00' W 002°59'0 0.0
2016-Jul-22 13:32N 59°00' W 002°59'0 0.0
2016-Jul-22 12:32N 59°00' W 002°59'0 0.0
2016-Jul-22 11:32N 59°00' W 002°59'0 0.0
2016-Jul-22 10:32N 59°00' W 002°59'0 0.0
2016-Jul-22 09:32N 59°00' W 002°59'0 0.0
2016-Jul-22 08:32N 59°00' W 002°59'0 0.0
2016-Jul-22 07:33N 59°00' W 002°59'14 6.9
2016-Jul-22 05:33N 59°14' W 003°03'1616.2
2016-Jul-22 04:33N 59°20' W 003°32'1716.7
2016-Jul-22 03:33N 59°27' W 004°02'  

Dump ship's entire track history